Time;durP1;ratioP1;P1;durP2;ratioP2;P2;SDS_P1;SDS_P2;PMS_P1;PMS_P2;Temp;Humidity;BMP_temperature;BMP_pressure;BME280_temperature;BME280_humidity;BME280_pressure;Samples;Min_cycle;Max_cycle;Signal;HPM_P1;HPM_P2
2023/07/07 00:03:35;;;;;;;12.60;7.00;;;;;;;26.26;100.00;100589.78;21207470;27;20051;-81
2023/07/07 00:13:59;;;;;;;9.13;6.38;;;;;;;26.27;100.00;100575.28;21191158;27;20055;-80
2023/07/07 00:24:22;;;;;;;9.55;5.95;;;;;;;26.18;100.00;100572.09;21190534;27;20047;-81
2023/07/07 00:34:47;;;;;;;8.38;6.00;;;;;;;26.15;100.00;100574.94;21135740;27;20429;-80
2023/07/07 00:45:16;;;;;;;11.27;5.43;;;;;;;26.04;100.00;100568.34;21179525;27;20150;-82
2023/07/07 00:55:43;;;;;;;8.77;5.40;;;;;;;26.05;100.00;100573.69;21174983;27;20044;-82
2023/07/07 01:06:09;;;;;;;10.53;5.40;;;;;;;26.06;100.00;100575.41;21175890;27;20036;-82
2023/07/07 01:16:41;;;;;;;8.77;5.55;;;;;;;26.06;100.00;100564.59;21203946;27;20096;-82
2023/07/07 01:27:42;;;;;;;9.32;5.78;;;;;;;26.13;100.00;100565.13;21203842;27;20502;-81
2023/07/07 01:37:55;;;;;;;12.68;6.13;;;;;;;26.06;100.00;100567.28;21204981;27;20039;-81
2023/07/07 01:48:40;;;;;;;12.95;5.05;;;;;;;26.10;100.00;100595.09;21212399;27;20051;-81
2023/07/07 01:59:06;;;;;;;11.05;5.75;;;;;;;26.07;100.00;100598.81;21199510;27;20063;-82
2023/07/07 02:09:29;;;;;;;7.88;4.82;;;;;;;26.15;99.92;100599.31;21197101;27;20555;-81
2023/07/07 02:19:55;;;;;;;10.27;5.55;;;;;;;26.20;98.91;100618.88;21214699;27;20100;-81
2023/07/07 02:30:17;;;;;;;7.72;5.05;;;;;;;26.18;98.77;100620.81;21202138;27;20047;-81
2023/07/07 02:40:43;;;;;;;10.20;5.10;;;;;;;26.17;98.33;100623.59;21216298;27;20051;-82
2023/07/07 02:51:07;;;;;;;9.30;5.28;;;;;;;26.11;98.85;100624.78;21201890;27;20096;-81
2023/07/07 03:01:32;;;;;;;10.77;5.18;;;;;;;26.08;98.81;100630.34;21197828;27;20302;-82
2023/07/07 03:11:55;;;;;;;9.57;5.80;;;;;;;26.02;99.09;100627.94;21184133;27;20057;-81
2023/07/07 03:22:23;;;;;;;10.00;5.30;;;;;;;25.94;100.00;100632.84;21209024;27;20051;-81
2023/07/07 03:32:50;;;;;;;11.13;5.00;;;;;;;26.02;100.00;100630.66;21204858;27;20047;-81
2023/07/07 03:43:18;;;;;;;12.90;5.00;;;;;;;26.21;100.00;100654.94;21209119;27;20062;-82
2023/07/07 03:53:42;;;;;;;7.65;4.22;;;;;;;26.65;95.29;100633.72;21205869;27;20047;-82
2023/07/07 04:04:08;;;;;;;8.73;3.95;;;;;;;27.15;89.22;100635.56;21211101;27;20062;-82
2023/07/07 04:14:30;;;;;;;10.20;4.88;;;;;;;27.63;87.75;100634.72;21153869;27;20055;-81
2023/07/07 04:25:11;;;;;;;9.63;4.30;;;;;;;28.07;80.71;100635.72;21124427;27;20044;-83
2023/07/07 04:35:37;;;;;;;7.20;3.67;;;;;;;28.58;83.68;100643.56;21153161;27;20042;-82
2023/07/07 04:46:04;;;;;;;7.72;4.03;;;;;;;29.17;80.58;100645.31;21168587;27;20142;-81
2023/07/07 04:56:27;;;;;;;8.48;3.88;;;;;;;29.71;78.16;100649.09;21155926;27;20051;-82
2023/07/07 05:06:51;;;;;;;9.52;4.30;;;;;;;30.32;74.59;100647.75;21139390;27;20399;-82
2023/07/07 05:17:14;;;;;;;7.80;4.10;;;;;;;30.93;69.32;100646.22;21181793;27;20108;-82
2023/07/07 05:27:38;;;;;;;7.72;3.63;;;;;;;31.51;57.96;100665.63;21198424;27;20159;-82
2023/07/07 05:38:01;;;;;;;8.95;4.00;;;;;;;31.98;54.18;100675.81;21190089;27;20054;-83
2023/07/07 05:48:26;;;;;;;8.73;3.53;;;;;;;32.55;49.71;100674.25;21220194;27;20047;-83
2023/07/07 05:58:48;;;;;;;8.37;3.90;;;;;;;32.75;45.15;100677.22;21200799;27;20099;-81
2023/07/07 06:09:13;;;;;;;8.35;4.22;;;;;;;33.38;42.66;100677.72;21201563;27;20051;-82
2023/07/07 06:19:35;;;;;;;8.07;4.22;;;;;;;33.85;39.62;100679.34;21159003;27;20074;-82
2023/07/07 06:30:00;;;;;;;8.00;4.30;;;;;;;34.52;39.61;100673.69;21203411;27;20510;-82
2023/07/07 06:40:22;;;;;;;5.68;4.20;;;;;;;35.00;38.02;100680.41;21200400;27;20057;-78
2023/07/07 06:50:46;;;;;;;11.07;3.70;;;;;;;35.27;37.51;100659.78;21209263;27;20783;-79
2023/07/07 07:01:04;;;;;;;6.45;4.00;;;;;;;35.55;37.44;100659.03;21241295;27;20043;-83
2023/07/07 07:11:29;;;;;;;10.25;4.25;;;;;;;35.85;36.85;100653.50;21212695;27;20040;-82
2023/07/07 07:21:51;;;;;;;9.93;4.50;;;;;;;36.17;36.46;100668.97;21229327;27;20804;-82
2023/07/07 07:32:16;;;;;;;6.85;3.88;;;;;;;36.32;36.30;100684.88;21228635;27;20070;-82
2023/07/07 07:42:39;;;;;;;10.50;4.07;;;;;;;36.73;35.95;100700.28;21216466;27;20047;-83
2023/07/07 07:53:03;;;;;;;7.40;4.30;;;;;;;37.02;35.28;100707.63;21221600;27;20055;-83
2023/07/07 08:03:26;;;;;;;;;;;;;;;36.92;35.25;100715.91;21211041;27;20096;-80
2023/07/07 08:13:50;;;;;;;7.30;4.40;;;;;;;37.01;35.50;100726.03;21200048;27;20338;-82
2023/07/07 08:24:06;;;;;;;7.68;4.63;;;;;;;37.15;35.61;100722.00;21232623;27;20088;-81
2023/07/07 08:34:31;;;;;;;10.80;4.17;;;;;;;36.72;35.91;100731.56;21213137;27;20129;-81
2023/07/07 08:44:55;;;;;;;;;;;;;;;37.00;35.79;100738.06;21195952;27;20050;-80
2023/07/07 08:56:02;;;;;;;8.32;4.05;;;;;;;37.47;36.15;100747.28;21164180;27;19951;-82
2023/07/07 09:06:41;;;;;;;12.70;8.20;;;;;;;37.61;35.22;100754.25;21181318;27;20044;-79
2023/07/07 09:17:15;;;;;;;10.63;4.63;;;;;;;38.06;35.07;100757.09;21182374;27;20055;-79
2023/07/07 09:27:43;;;;;;;8.30;4.53;;;;;;;37.97;35.09;100768.16;21117781;27;20050;-80
2023/07/07 09:38:22;;;;;;;7.90;4.43;;;;;;;38.06;35.31;100776.41;21112268;27;20052;-79
2023/07/07 09:48:55;;;;;;;9.07;4.80;;;;;;;38.10;34.74;100780.59;21126802;27;20073;-80
2023/07/07 09:59:22;;;;;;;9.90;3.92;;;;;;;38.08;35.41;100774.34;21085879;27;20133;-83
2023/07/07 10:09:43;;;;;;;7.20;4.25;;;;;;;38.16;34.78;100779.09;21162883;27;20051;-81
2023/07/07 10:20:06;;;;;;;9.00;4.13;;;;;;;37.91;34.65;100766.88;21132632;28;20043;-81
2023/07/07 10:30:32;;;;;;;9.00;4.88;;;;;;;37.71;35.25;100756.94;21165092;27;20388;-81
2023/07/07 10:40:55;;;;;;;7.55;4.43;;;;;;;37.55;35.01;100743.75;21126643;27;20745;-81
2023/07/07 10:51:31;;;;;;;7.45;4.50;;;;;;;37.89;34.83;100735.81;21132847;27;20052;-79
2023/07/07 11:02:05;;;;;;;8.40;4.65;;;;;;;38.02;34.16;100727.19;21149656;27;20059;-80
2023/07/07 11:12:38;;;;;;;9.65;4.50;;;;;;;38.39;33.30;100740.94;21122361;27;20053;-80
2023/07/07 11:23:22;;;;;;;7.40;3.70;;;;;;;38.79;32.51;100740.50;21207455;27;20050;-81
2023/07/07 11:33:54;;;;;;;11.05;4.13;;;;;;;38.82;32.84;100735.50;21193758;27;20058;-83
2023/07/07 11:44:36;;;;;;;6.60;3.53;;;;;;;38.34;33.54;100741.38;21201111;27;20050;-82
2023/07/07 11:54:58;;;;;;;7.95;4.20;;;;;;;37.76;33.48;100747.19;21194931;27;20064;-82
2023/07/07 12:05:30;;;;;;;6.50;3.92;;;;;;;37.58;33.28;100734.34;21223650;27;20043;-82
2023/07/07 12:16:01;;;;;;;7.40;4.20;;;;;;;37.62;33.22;100738.53;21157216;27;20047;-83
2023/07/07 12:26:28;;;;;;;5.50;3.60;;;;;;;37.57;33.36;100738.09;21150206;27;20059;-81
2023/07/07 12:36:55;;;;;;;9.15;3.63;;;;;;;37.72;33.12;100744.91;21179510;27;20051;-80
2023/07/07 12:47:20;;;;;;;6.13;4.13;;;;;;;37.84;32.75;100747.31;21203680;27;20133;-80
2023/07/07 12:57:59;;;;;;;7.90;3.97;;;;;;;38.10;32.36;100755.75;21167648;27;20052;-80
2023/07/07 13:08:38;;;;;;;8.48;4.25;;;;;;;38.38;32.01;100736.44;21189766;27;20100;-80
2023/07/07 13:19:03;;;;;;;9.80;4.28;;;;;;;38.16;31.79;100732.22;21175776;27;20108;-81
2023/07/07 13:29:28;;;;;;;7.55;4.32;;;;;;;38.32;31.36;100717.75;21201804;27;20051;-80
2023/07/07 13:39:52;;;;;;;6.35;3.95;;;;;;;37.31;31.94;100737.88;21202328;27;20066;-80
2023/07/07 13:50:17;;;;;;;6.17;4.17;;;;;;;37.07;31.66;100727.34;21208432;27;20047;-81
2023/07/07 14:00:43;;;;;;;;;;;;;;;36.93;31.50;100709.38;21214917;27;20074;-78
2023/07/07 14:11:08;;;;;;;7.57;3.93;;;;;;;36.94;31.28;100724.03;21192560;27;19920;-76
2023/07/07 14:21:33;;;;;;;;;;;;;;;36.94;31.44;100715.75;21203754;27;20108;-82
2023/07/07 14:32:00;;;;;;;11.00;3.92;;;;;;;37.28;31.81;100703.25;21217515;27;20008;-80
2023/07/07 14:42:27;;;;;;;9.02;4.57;;;;;;;37.36;32.24;100686.81;21202731;27;20376;-81
2023/07/07 14:52:54;;;;;;;10.60;5.15;;;;;;;37.44;32.40;100686.06;21191657;27;20062;-80
2023/07/07 15:03:40;;;;;;;10.52;4.32;;;;;;;36.86;32.51;100672.44;21204987;27;20043;-79
2023/07/07 15:14:04;;;;;;;8.00;3.97;;;;;;;36.19;32.81;100665.03;21196264;27;20054;-78
2023/07/07 15:24:28;;;;;;;6.35;3.72;;;;;;;35.19;33.19;100657.69;21166612;27;20051;-80
2023/07/07 15:34:50;;;;;;;7.38;3.63;;;;;;;34.46;33.87;100672.34;21145877;27;20691;-80
2023/07/07 15:45:15;;;;;;;9.32;4.40;;;;;;;33.79;34.29;100688.06;21091415;27;20090;-79
2023/07/07 15:55:37;;;;;;;10.20;4.30;;;;;;;33.17;35.33;100672.94;21209259;27;20062;-79
2023/07/07 16:06:02;;;;;;;7.32;4.45;;;;;;;32.87;35.96;100675.38;21163045;27;20055;-79
2023/07/07 16:16:28;;;;;;;9.32;4.28;;;;;;;32.51;36.78;100678.19;21224505;27;20063;-78
2023/07/07 16:26:52;;;;;;;7.95;4.25;;;;;;;32.30;37.42;100687.06;21139791;27;20462;-79
2023/07/07 16:37:14;;;;;;;11.27;4.40;;;;;;;32.12;37.97;100685.69;21175350;27;20047;-79
2023/07/07 16:47:39;;;;;;;8.45;4.20;;;;;;;31.97;38.78;100678.63;21189843;27;20592;-80
2023/07/07 16:58:01;;;;;;;11.13;4.25;;;;;;;31.83;39.17;100687.00;21090813;27;20043;-79
2023/07/07 17:08:26;;;;;;;10.73;6.32;;;;;;;31.57;40.14;100692.47;21132903;27;20051;-79
2023/07/07 17:18:37;;;;;;;14.10;8.45;;;;;;;31.26;41.19;100701.13;21154399;27;20058;-79
2023/07/07 17:29:03;;;;;;;15.20;9.00;;;;;;;30.94;42.19;100711.56;21222785;27;20051;-79
2023/07/07 17:39:27;;;;;;;11.32;5.43;;;;;;;30.80;42.17;100711.66;21188490;27;20043;-79
2023/07/07 17:49:54;;;;;;;9.10;4.72;;;;;;;30.61;42.95;100722.09;21179477;27;20058;-78
2023/07/07 18:00:22;;;;;;;10.07;4.50;;;;;;;30.51;43.03;100726.44;21196834;27;20042;-82
2023/07/07 18:10:27;;;;;;;;;;;;;;;30.35;43.84;100729.25;21190747;27;20047;-78
2023/07/07 18:20:34;;;;;;;9.45;5.15;;;;;;;30.24;44.06;100730.00;21205278;27;19933;-79
2023/07/07 18:31:08;;;;;;;7.47;4.43;;;;;;;30.13;44.95;100742.59;21194552;27;20054;-80
2023/07/07 18:41:32;;;;;;;8.88;5.25;;;;;;;30.07;45.20;100755.59;21208073;27;20037;-80
2023/07/07 18:51:56;;;;;;;7.28;4.97;;;;;;;29.96;45.59;100754.56;21223152;27;20042;-80
2023/07/07 19:02:19;;;;;;;8.32;5.75;;;;;;;29.75;46.54;100767.69;21222503;27;20066;-80
2023/07/07 19:12:43;;;;;;;8.48;4.88;;;;;;;29.57;47.57;100767.00;21202149;27;21623;-81
2023/07/07 19:23:11;;;;;;;9.20;5.22;;;;;;;29.46;49.03;100774.09;21121143;27;20051;-80
2023/07/07 19:33:35;;;;;;;8.80;4.67;;;;;;;29.41;50.46;100781.66;21126899;27;20043;-79
2023/07/07 19:43:58;;;;;;;13.93;6.85;;;;;;;29.29;51.70;100778.69;21146010;27;20387;-79
2023/07/07 19:54:23;;;;;;;9.30;5.95;;;;;;;29.20;53.96;100768.41;21140105;27;20044;-79
2023/07/07 20:04:48;;;;;;;8.35;5.28;;;;;;;29.11;54.90;100768.97;21118794;27;20057;-80
2023/07/07 20:15:13;;;;;;;8.07;5.18;;;;;;;29.04;56.42;100761.25;21135933;27;20056;-80
2023/07/07 20:25:35;;;;;;;9.63;5.28;;;;;;;28.94;56.80;100763.69;21177909;27;20055;-79
2023/07/07 20:36:00;;;;;;;11.20;5.80;;;;;;;28.89;59.63;100757.63;21131133;27;20043;-80
2023/07/07 20:46:26;;;;;;;8.43;5.80;;;;;;;28.86;62.05;100757.84;21165315;27;20099;-81
2023/07/07 20:56:50;;;;;;;11.02;5.90;;;;;;;28.82;63.25;100756.25;21150169;27;20039;-80
2023/07/07 21:07:13;;;;;;;8.18;5.65;;;;;;;28.75;65.78;100757.63;21125536;28;20074;-81
2023/07/07 21:17:37;;;;;;;12.02;5.82;;;;;;;28.71;68.67;100747.84;21180286;27;20055;-81
2023/07/07 21:28:00;;;;;;;9.35;5.68;;;;;;;28.59;73.99;100752.16;21219906;27;20530;-80
2023/07/07 21:38:25;;;;;;;10.50;5.82;;;;;;;28.54;74.76;100747.00;21220627;27;20039;-80
2023/07/07 21:48:47;;;;;;;11.43;5.55;;;;;;;28.46;75.99;100749.31;21194206;27;20043;-79
2023/07/07 21:59:18;;;;;;;12.55;6.50;;;;;;;28.38;78.88;100737.13;21198700;27;20059;-79
2023/07/07 22:09:40;;;;;;;9.77;5.10;;;;;;;28.29;79.26;100735.81;21216125;27;20043;-80
2023/07/07 22:20:22;;;;;;;10.68;6.70;;;;;;;28.26;83.80;100719.72;21220052;27;20062;-80
2023/07/07 22:30:48;;;;;;;10.65;6.50;;;;;;;28.17;87.22;100725.66;21221578;27;20043;-80
2023/07/07 22:41:15;;;;;;;9.80;6.28;;;;;;;28.06;89.41;100722.66;21238084;27;20093;-80
2023/07/07 22:51:38;;;;;;;11.40;6.40;;;;;;;27.99;91.05;100726.69;21238233;27;20050;-80
2023/07/07 23:02:05;;;;;;;10.38;6.75;;;;;;;27.96;93.31;100722.31;21227961;27;20499;-81
2023/07/07 23:12:27;;;;;;;10.40;6.55;;;;;;;27.93;96.60;100710.75;21235555;27;20445;-81
2023/07/07 23:22:49;;;;;;;9.73;6.72;;;;;;;27.88;100.00;100715.59;21187110;27;20115;-80
2023/07/07 23:33:13;;;;;;;11.95;7.03;;;;;;;27.79;100.00;100700.69;21209680;27;20051;-80
2023/07/07 23:43:38;;;;;;;12.05;6.68;;;;;;;27.72;100.00;100694.72;21134526;27;20851;-79
2023/07/07 23:54:00;;;;;;;10.50;7.20;;;;;;;27.64;100.00;100679.84;21173736;27;20071;-80
